Time;durP1;ratioP1;P1;durP2;ratioP2;P2;SDS_P1;SDS_P2;PMS_P1;PMS_P2;Temp;Humidity;BMP_temperature;BMP_pressure;BME280_temperature;BME280_humidity;BME280_pressure;Samples;Min_cycle;Max_cycle;Signal;HPM_P1;HPM_P2
2023/09/25 00:01:56;;;;;;;1.80;1.30;;;;;;;19.80;53.55;102146.03;5106129;28;20106;-82
2023/09/25 00:04:25;;;;;;;1.83;1.25;;;;;;;19.60;53.57;102110.94;5116093;28;20024;-82
2023/09/25 00:06:50;;;;;;;1.58;1.17;;;;;;;19.71;53.29;102128.88;5108911;28;20624;-83
2023/09/25 00:09:16;;;;;;;2.97;1.60;;;;;;;19.57;53.17;102105.81;5122121;28;20051;-83
2023/09/25 00:11:42;;;;;;;1.90;1.30;;;;;;;19.72;53.39;102135.94;5113945;28;20039;-82
2023/09/25 00:14:07;;;;;;;1.83;1.17;;;;;;;19.48;53.09;102099.44;5113270;28;20027;-82
2023/09/25 00:16:32;;;;;;;2.55;1.45;;;;;;;19.44;53.43;102100.72;5115182;28;20019;-82
2023/09/25 00:18:57;;;;;;;1.80;1.38;;;;;;;19.57;53.36;102119.31;5112157;28;20032;-82
2023/09/25 00:21:23;;;;;;;1.52;1.38;;;;;;;19.43;53.29;102096.31;5119589;28;20028;-82
2023/09/25 00:23:48;;;;;;;2.08;1.10;;;;;;;19.56;53.19;102124.84;5110353;28;20032;-82
2023/09/25 00:26:14;;;;;;;1.98;1.40;;;;;;;19.56;53.36;102124.84;5105083;28;20028;-83
2023/09/25 00:28:39;;;;;;;2.10;1.30;;;;;;;19.52;53.46;102124.28;5107028;28;20112;-82
2023/09/25 00:31:04;;;;;;;1.38;1.20;;;;;;;19.18;53.29;102070.78;5105862;28;20031;-83
2023/09/25 00:33:30;;;;;;;1.85;1.25;;;;;;;19.41;53.42;102097.44;5105977;28;20566;-83
2023/09/25 00:35:55;;;;;;;1.17;1.00;;;;;;;19.19;53.69;102067.09;5111517;28;20072;-83
2023/09/25 00:38:20;;;;;;;1.40;1.20;;;;;;;19.71;53.24;102154.00;5105761;28;20487;-83
2023/09/25 00:40:46;;;;;;;1.73;1.40;;;;;;;19.71;53.54;102153.16;5105667;28;20032;-82
2023/09/25 00:43:12;;;;;;;1.95;1.30;;;;;;;19.63;53.37;102140.38;5107729;28;20058;-82
2023/09/25 00:45:40;;;;;;;2.30;1.20;;;;;;;19.71;53.47;102142.34;5107397;28;20031;-82
2023/09/25 00:48:06;;;;;;;1.42;1.17;;;;;;;19.52;52.93;102115.34;5105789;28;20052;-83
2023/09/25 00:50:33;;;;;;;1.75;1.25;;;;;;;19.69;53.35;102147.03;5092512;28;20482;-83
2023/09/25 00:53:06;;;;;;;2.05;1.30;;;;;;;19.68;53.39;102148.88;5120261;28;20035;-83
2023/09/25 00:55:32;;;;;;;1.80;1.40;;;;;;;19.68;53.46;102139.94;5098380;28;20028;-82
2023/09/25 00:57:59;;;;;;;1.70;1.40;;;;;;;19.42;53.37;102101.88;5094347;28;20045;-83
2023/09/25 01:00:24;;;;;;;1.98;1.50;;;;;;;19.53;53.43;102125.13;5119085;28;20043;-83
2023/09/25 01:02:49;;;;;;;2.60;1.35;;;;;;;19.36;53.36;102099.72;5105331;28;20035;-82
2023/09/25 01:05:15;;;;;;;1.85;1.30;;;;;;;19.33;53.23;102084.72;5110691;28;20137;-82
2023/09/25 01:07:40;;;;;;;2.17;1.50;;;;;;;19.51;53.20;102119.03;5108367;28;20035;-82
2023/09/25 01:10:14;;;;;;;2.13;1.20;;;;;;;19.65;53.49;102146.47;5063625;28;1090772;-81
2023/09/25 01:12:42;;;;;;;1.50;1.20;;;;;;;19.64;53.56;102138.50;5117001;28;20048;-82
2023/09/25 01:15:08;;;;;;;1.58;1.20;;;;;;;19.57;53.43;102137.34;5103701;28;20087;-80
2023/09/25 01:17:34;;;;;;;2.72;1.45;;;;;;;19.63;53.38;102140.38;5097743;28;20028;-82
2023/09/25 01:20:11;;;;;;;1.65;1.20;;;;;;;19.56;53.33;102139.19;5111972;28;20079;-83
2023/09/25 01:22:37;;;;;;;2.05;1.40;;;;;;;19.39;53.06;102107.53;5106712;28;20070;-82
2023/09/25 01:25:03;;;;;;;1.70;1.30;;;;;;;19.63;53.38;102144.91;5113526;28;20024;-82
2023/09/25 01:27:28;;;;;;;2.15;1.30;;;;;;;19.32;53.07;102101.84;5119299;28;20054;-82
2023/09/25 01:29:54;;;;;;;4.78;1.13;;;;;;;19.48;53.35;102128.25;5112747;28;20020;-82
2023/09/25 01:32:19;;;;;;;2.03;1.40;;;;;;;19.40;53.26;102107.41;5099526;28;20429;-81
2023/09/25 01:34:44;;;;;;;1.77;1.40;;;;;;;19.39;53.39;102111.09;5117616;28;20042;-82
2023/09/25 01:37:10;;;;;;;1.70;1.20;;;;;;;19.35;53.42;102101.59;5095684;28;20020;-82
2023/09/25 01:39:35;;;;;;;2.30;1.30;;;;;;;19.39;53.10;102111.09;5115070;28;20116;-81
2023/09/25 01:42:01;;;;;;;1.30;1.17;;;;;;;19.54;53.38;102133.09;5111091;28;20055;-83
2023/09/25 01:44:27;;;;;;;3.15;1.80;;;;;;;19.42;53.32;102115.38;5107450;28;20027;-82
2023/09/25 01:46:52;;;;;;;2.08;1.30;;;;;;;19.58;53.22;102139.91;5098110;28;20031;-82
2023/09/25 01:49:17;;;;;;;1.88;1.50;;;;;;;19.46;53.22;102130.28;5109528;28;20041;-82
2023/09/25 01:51:46;;;;;;;1.65;1.17;;;;;;;19.44;53.06;102118.75;5110533;28;20096;-82
2023/09/25 01:54:11;;;;;;;2.05;1.20;;;;;;;19.28;53.14;102092.34;5117843;28;20084;-82
2023/09/25 01:56:36;;;;;;;1.60;1.15;;;;;;;19.52;53.35;102126.13;5108090;28;20031;-82
2023/09/25 01:59:02;;;;;;;1.73;1.40;;;;;;;19.34;53.26;102107.97;5105310;28;20024;-82
2023/09/25 02:01:27;;;;;;;1.50;1.30;;;;;;;19.54;53.38;102133.09;5113646;28;20032;-81
2023/09/25 02:03:53;;;;;;;2.25;1.27;;;;;;;19.43;53.34;102125.16;5106683;28;20362;-82
2023/09/25 02:06:18;;;;;;;2.40;1.60;;;;;;;19.32;52.93;102091.06;5115236;28;20035;-82
2023/09/25 02:08:44;;;;;;;2.17;1.50;;;;;;;19.31;53.13;102092.06;5114817;28;20048;-82
2023/09/25 02:11:09;;;;;;;1.77;1.33;;;;;;;19.54;53.20;102135.81;5108170;28;20032;-82
2023/09/25 02:13:34;;;;;;;1.80;1.30;;;;;;;19.53;53.13;102131.38;5120707;27;20064;-82
2023/09/25 02:16:00;;;;;;;2.30;1.40;;;;;;;19.53;53.05;102125.97;5116872;27;20024;-83
2023/09/25 02:18:25;;;;;;;1.15;0.95;;;;;;;19.53;52.91;102122.44;5108446;28;20546;-82
2023/09/25 02:20:51;;;;;;;2.10;1.27;;;;;;;19.21;53.07;102077.75;5120925;28;20128;-82
2023/09/25 02:23:16;;;;;;;2.13;1.50;;;;;;;19.35;52.96;102096.19;5113548;28;20027;-81
2023/09/25 02:25:41;;;;;;;3.28;1.48;;;;;;;19.30;53.31;102076.91;5108159;28;20087;-82
2023/09/25 02:28:08;;;;;;;2.80;1.25;;;;;;;19.51;52.91;102116.34;5119763;28;20072;-82
2023/09/25 02:30:33;;;;;;;1.75;1.35;;;;;;;19.49;53.55;102114.63;5113168;28;20457;-82
2023/09/25 02:32:59;;;;;;;2.35;1.73;;;;;;;19.26;53.15;102070.09;5111133;28;20038;-83
2023/09/25 02:35:25;;;;;;;2.38;1.30;;;;;;;19.30;53.25;102073.34;5110077;28;20481;-81
2023/09/25 02:37:50;;;;;;;1.67;1.20;;;;;;;19.48;53.28;102112.94;5116798;28;20033;-82
2023/09/25 02:40:15;;;;;;;1.58;1.30;;;;;;;19.44;53.01;102102.56;5110547;28;20075;-81
2023/09/25 02:42:41;;;;;;;2.08;1.35;;;;;;;19.45;53.24;102107.84;5122432;28;20035;-82
2023/09/25 02:45:07;;;;;;;2.00;1.60;;;;;;;19.39;52.97;102091.38;5108641;28;20024;-82
2023/09/25 02:47:32;;;;;;;1.60;1.23;;;;;;;19.23;53.00;102063.13;5107051;28;20449;-82
2023/09/25 02:49:57;;;;;;;1.98;1.45;;;;;;;18.75;52.96;102001.13;5109335;28;20051;-82
2023/09/25 02:52:23;;;;;;;2.13;1.40;;;;;;;19.46;52.93;102111.38;5123699;28;20024;-82
2023/09/25 02:54:48;;;;;;;2.28;1.50;;;;;;;19.25;52.83;102075.63;5110866;28;20031;-81
2023/09/25 02:57:13;;;;;;;1.60;1.40;;;;;;;19.23;52.91;102075.75;5121788;28;20718;-82
2023/09/25 02:59:41;;;;;;;1.90;1.60;;;;;;;19.25;52.96;102086.41;5111845;28;20045;-82
2023/09/25 03:02:06;;;;;;;2.38;1.42;;;;;;;19.44;53.12;102118.75;5111227;28;20085;-81
2023/09/25 03:04:32;;;;;;;1.60;1.30;;;;;;;19.43;53.25;102123.31;5109786;28;20024;-81
2023/09/25 03:06:57;;;;;;;1.83;1.25;;;;;;;19.38;53.09;102113.94;5111816;28;20035;-82
2023/09/25 03:09:23;;;;;;;2.95;1.50;;;;;;;19.25;53.12;102095.34;5099671;28;20094;-82
2023/09/25 03:11:48;;;;;;;1.88;1.40;;;;;;;19.17;53.00;102087.13;5111065;28;20031;-82
2023/09/25 03:14:13;;;;;;;1.75;1.27;;;;;;;19.42;53.18;102118.06;5113185;27;20030;-82
2023/09/25 03:16:41;;;;;;;1.40;1.05;;;;;;;19.41;53.32;102119.91;5111724;28;20028;-82
2023/09/25 03:19:07;;;;;;;2.30;1.85;;;;;;;19.15;52.89;102083.69;5117267;28;20023;-82
2023/09/25 03:21:33;;;;;;;2.50;1.50;;;;;;;19.40;53.01;102115.47;5095870;28;20028;-82
2023/09/25 03:23:58;;;;;;;1.88;1.50;;;;;;;19.00;53.13;102042.84;5113786;28;20046;-79
2023/09/25 03:26:24;;;;;;;1.63;1.35;;;;;;;19.40;53.22;102111.94;5104557;28;20016;-82
2023/09/25 03:28:49;;;;;;;2.30;1.30;;;;;;;19.23;53.00;102086.53;5116231;28;20024;-81
2023/09/25 03:31:14;;;;;;;3.63;1.58;;;;;;;19.08;52.81;102056.47;5120895;28;20077;-82
2023/09/25 03:33:40;;;;;;;2.50;1.25;;;;;;;19.18;53.21;102070.78;5114938;28;20028;-81
2023/09/25 03:36:07;;;;;;;1.77;1.23;;;;;;;19.34;52.80;102099.03;5112275;28;20064;-82
2023/09/25 03:38:33;;;;;;;2.30;1.48;;;;;;;19.38;53.30;102105.84;5096908;28;20024;-81
2023/09/25 03:40:58;;;;;;;1.48;1.10;;;;;;;19.37;52.96;102104.13;5109697;28;20019;-82
2023/09/25 03:43:23;;;;;;;1.85;1.35;;;;;;;18.99;52.82;102051.94;5120541;28;20041;-81
2023/09/25 03:45:49;;;;;;;1.70;1.45;;;;;;;19.12;53.01;102067.84;5117631;28;20027;-82
2023/09/25 03:48:14;;;;;;;2.38;1.30;;;;;;;19.19;53.03;102082.41;5113922;28;20377;-83
2023/09/25 03:50:39;;;;;;;1.40;1.23;;;;;;;18.95;52.96;102037.88;5122036;28;20045;-82
2023/09/25 03:53:05;;;;;;;2.03;1.30;;;;;;;19.02;52.98;102056.19;5111056;28;20024;-82
2023/09/25 03:55:30;;;;;;;2.15;1.63;;;;;;;19.15;52.75;102084.53;5110674;28;20066;-82
2023/09/25 03:57:56;;;;;;;1.83;1.30;;;;;;;19.33;53.04;102103.59;5104723;28;20039;-82
2023/09/25 04:00:22;;;;;;;1.58;1.48;;;;;;;19.33;53.14;102097.34;5109542;28;20028;-82
2023/09/25 04:02:48;;;;;;;2.13;1.50;;;;;;;19.28;52.78;102097.75;5113254;28;20210;-82
2023/09/25 04:05:13;;;;;;;1.40;1.20;;;;;;;19.02;52.83;102053.47;5099623;28;20016;-83
2023/09/25 04:07:38;;;;;;;1.70;1.10;;;;;;;19.28;52.91;102096.91;5121028;28;20392;-82
2023/09/25 04:10:07;;;;;;;2.67;1.38;;;;;;;19.31;53.00;102102.84;5122895;28;20055;-83
2023/09/25 04:12:32;;;;;;;1.88;1.50;;;;;;;19.04;52.97;102063.13;5104604;28;20028;-83
2023/09/25 04:14:58;;;;;;;2.72;1.50;;;;;;;19.31;52.76;102112.78;5112878;27;20057;-83
2023/09/25 04:17:24;;;;;;;1.92;1.73;;;;;;;19.12;53.11;102078.63;5119454;28;20024;-82
2023/09/25 04:19:50;;;;;;;1.77;1.30;;;;;;;19.11;52.83;102085.81;5110704;28;20039;-82
2023/09/25 04:22:16;;;;;;;1.85;1.30;;;;;;;19.19;52.93;102093.22;5107444;28;20687;-82
2023/09/25 04:24:42;;;;;;;2.42;1.50;;;;;;;19.16;53.06;102090.81;5119589;28;20098;-82
2023/09/25 04:27:09;;;;;;;1.48;1.15;;;;;;;19.29;53.10;102110.25;5104068;28;20012;-83
2023/09/25 04:29:35;;;;;;;1.67;1.17;;;;;;;19.29;52.84;102120.19;5111085;28;20023;-82
2023/09/25 04:32:00;;;;;;;1.65;1.40;;;;;;;19.05;52.98;102074.78;5115688;28;20028;-82
2023/09/25 04:34:26;;;;;;;1.30;1.20;;;;;;;19.28;52.88;102118.47;5093658;28;20028;-82
2023/09/25 04:36:52;;;;;;;1.58;1.30;;;;;;;19.17;53.11;102092.50;5114104;28;20023;-82
2023/09/25 04:39:17;;;;;;;1.92;1.52;;;;;;;18.87;52.79;102044.97;5111349;28;20593;-82
2023/09/25 04:41:44;;;;;;;1.30;1.20;;;;;;;19.27;52.85;102112.22;5092989;28;20081;-81
2023/09/25 04:44:09;;;;;;;1.33;1.23;;;;;;;19.26;53.23;102107.00;5107744;28;20088;-82
2023/09/25 04:46:34;;;;;;;1.33;1.20;;;;;;;19.08;53.02;102074.50;5103976;28;20032;-81
2023/09/25 04:49:03;;;;;;;1.52;1.42;;;;;;;18.73;52.70;102012.06;5103792;28;20027;-82
2023/09/25 04:51:28;;;;;;;1.90;1.35;;;;;;;19.17;52.75;102096.06;5107988;28;20028;-81
2023/09/25 04:53:53;;;;;;;1.85;1.30;;;;;;;19.25;52.72;102103.44;5106160;28;20168;-82
2023/09/25 04:56:20;;;;;;;3.63;1.30;;;;;;;18.96;53.05;102052.22;5100418;28;20024;-82
2023/09/25 04:58:46;;;;;;;1.77;1.20;;;;;;;19.08;52.75;102074.50;5112052;28;20036;-81
2023/09/25 05:01:11;;;;;;;1.38;1.20;;;;;;;18.69;52.76;102018.72;5106924;28;20023;-82
2023/09/25 05:03:36;;;;;;;1.60;1.50;;;;;;;18.88;52.66;102052.06;5110587;28;20035;-82
2023/09/25 05:06:02;;;;;;;1.30;1.20;;;;;;;18.76;52.91;102029.78;5108653;28;20023;-82
2023/09/25 05:08:27;;;;;;;2.13;1.40;;;;;;;19.21;52.91;102102.88;5099759;28;20054;-82
2023/09/25 05:10:52;;;;;;;1.30;1.20;;;;;;;19.15;52.97;102102.56;5103030;28;20031;-82
2023/09/25 05:13:18;;;;;;;1.67;1.50;;;;;;;19.02;52.94;102072.34;5120403;28;20078;-82
2023/09/25 05:15:43;;;;;;;1.70;1.50;;;;;;;18.75;52.63;102021.84;5108837;28;20024;-82
2023/09/25 05:18:08;;;;;;;1.90;1.40;;;;;;;18.77;52.73;102033.31;5109276;28;20087;-82
2023/09/25 05:20:34;;;;;;;1.48;1.13;;;;;;;19.12;53.05;102098.34;5108294;28;20039;-82
2023/09/25 05:22:59;;;;;;;1.98;1.35;;;;;;;19.19;53.12;102118.31;5106445;28;20035;-82
2023/09/25 05:25:26;;;;;;;1.50;1.20;;;;;;;19.07;53.05;102105.13;5110841;28;20016;-82
2023/09/25 05:27:54;;;;;;;1.58;1.33;;;;;;;18.94;52.94;102084.66;5109798;28;20019;-81
2023/09/25 05:30:20;;;;;;;1.55;1.15;;;;;;;18.71;52.92;102049.06;5104970;28;20533;-82
2023/09/25 05:32:48;;;;;;;1.67;1.50;;;;;;;19.17;52.76;102120.31;5097067;28;20028;-81
2023/09/25 05:35:13;;;;;;;1.77;1.20;;;;;;;18.91;52.83;102079.59;5108172;28;20427;-82
2023/09/25 05:37:39;;;;;;;1.75;1.35;;;;;;;19.18;52.83;102126.56;5106459;28;20024;-82
2023/09/25 05:40:05;;;;;;;1.88;1.30;;;;;;;18.84;52.73;102077.59;5116206;28;20080;-82
2023/09/25 05:42:31;;;;;;;2.35;1.63;;;;;;;19.17;53.00;102138.34;5108890;28;20028;-82
2023/09/25 05:44:57;;;;;;;1.70;1.15;;;;;;;18.80;52.95;102086.94;5097181;28;20062;-82
2023/09/25 05:47:23;;;;;;;2.22;1.73;;;;;;;18.97;52.56;102113.19;5120625;28;20028;-81
2023/09/25 05:49:48;;;;;;;1.55;1.27;;;;;;;19.04;52.88;102121.59;5112600;28;20769;-81
2023/09/25 05:52:14;;;;;;;1.60;1.20;;;;;;;18.67;52.88;102057.53;5115000;28;20080;-81
2023/09/25 05:54:40;;;;;;;2.28;1.30;;;;;;;18.85;52.58;102092.75;5108034;28;20559;-81
2023/09/25 05:57:05;;;;;;;1.67;1.35;;;;;;;18.87;53.14;102098.88;5117750;28;20392;-81
2023/09/25 05:59:33;;;;;;;3.08;1.42;;;;;;;18.89;52.73;102103.09;5114289;28;20031;-82
2023/09/25 06:01:58;;;;;;;1.58;1.20;;;;;;;18.72;52.75;102074.16;5122512;28;20024;-81
2023/09/25 06:04:23;;;;;;;1.77;1.40;;;;;;;18.63;52.88;102059.66;5108834;28;20039;-82
2023/09/25 06:06:49;;;;;;;2.47;1.60;;;;;;;19.14;52.47;102144.00;5117537;28;20032;-81
2023/09/25 06:09:15;;;;;;;1.63;1.40;;;;;;;18.88;53.09;102109.50;5121000;28;20073;-82
2023/09/25 06:11:41;;;;;;;1.30;1.20;;;;;;;18.91;52.66;102114.63;5108085;28;20028;-81
2023/09/25 06:14:07;;;;;;;1.42;1.20;;;;;;;19.00;52.79;102128.25;5107738;28;20024;-81
2023/09/25 06:16:32;;;;;;;1.10;1.00;;;;;;;19.00;52.63;102126.41;5114180;28;20038;-82
2023/09/25 06:18:57;;;;;;;1.52;1.08;;;;;;;18.77;52.45;102089.91;5112553;28;20024;-82
2023/09/25 06:21:23;;;;;;;1.77;1.17;;;;;;;18.85;52.84;102100.84;5120393;28;20028;-82
2023/09/25 06:23:48;;;;;;;2.00;1.40;;;;;;;18.67;52.69;102073.69;5105767;28;20078;-81
2023/09/25 06:26:14;;;;;;;1.50;1.10;;;;;;;18.69;52.60;102080.69;5110139;28;20030;-81
2023/09/25 06:28:39;;;;;;;1.50;1.30;;;;;;;18.91;53.00;102127.25;5107879;28;20396;-81
2023/09/25 06:31:04;;;;;;;1.33;1.13;;;;;;;18.95;52.91;102139.44;5112623;28;20036;-82
2023/09/25 06:33:30;;;;;;;2.00;1.60;;;;;;;18.72;52.79;102096.56;5097436;28;20055;-82
2023/09/25 06:35:55;;;;;;;1.92;1.20;;;;;;;18.64;52.74;102079.34;5116416;28;20128;-82
2023/09/25 06:38:21;;;;;;;1.75;1.40;;;;;;;18.69;52.70;102093.25;5099320;28;20484;-82
2023/09/25 06:40:46;;;;;;;1.45;1.20;;;;;;;19.06;52.72;102157.31;5116308;28;20034;-81
2023/09/25 06:43:12;;;;;;;1.67;1.20;;;;;;;19.12;52.66;102165.72;5106860;28;20024;-81
2023/09/25 06:45:38;;;;;;;2.00;1.50;;;;;;;19.05;52.87;102150.25;5114096;28;20031;-81
2023/09/25 06:48:04;;;;;;;1.95;1.40;;;;;;;19.12;52.72;102154.94;5118918;28;20024;-81
2023/09/25 06:50:30;;;;;;;1.95;1.45;;;;;;;18.58;52.48;102063.75;5106081;28;20671;-81
2023/09/25 06:52:56;;;;;;;1.30;1.20;;;;;;;18.98;52.71;102137.31;5107797;28;20948;-81
2023/09/25 06:55:21;;;;;;;1.40;1.27;;;;;;;18.82;52.94;102091.22;5109854;28;20031;-80
2023/09/25 06:57:46;;;;;;;1.58;1.48;;;;;;;18.76;52.53;102090.91;5120606;28;20035;-81
2023/09/25 07:00:13;;;;;;;1.30;1.20;;;;;;;18.81;52.87;102105.66;5110555;28;20457;-81
2023/09/25 07:02:39;;;;;;;1.30;1.20;;;;;;;18.63;52.56;102070.41;5106522;28;20484;-81
2023/09/25 07:05:04;;;;;;;1.88;1.23;;;;;;;19.12;52.60;102157.63;5106105;28;20039;-81
2023/09/25 07:07:30;;;;;;;1.77;1.35;;;;;;;18.90;52.68;102118.31;5109567;28;20028;-81
2023/09/25 07:09:55;;;;;;;1.48;1.10;;;;;;;18.75;52.68;102091.91;5108180;28;20180;-81
2023/09/25 07:12:20;;;;;;;1.50;1.15;;;;;;;19.13;52.62;102159.34;5105013;28;20028;-83
2023/09/25 07:14:51;;;;;;;2.00;1.40;;;;;;;18.77;52.62;102089.91;5115111;27;20028;-81
2023/09/25 07:17:17;;;;;;;2.58;1.40;;;;;;;18.88;52.48;102105.97;5105040;28;20028;-81
2023/09/25 07:19:42;;;;;;;1.58;1.40;;;;;;;18.55;53.04;102053.25;5108201;28;20038;-81
2023/09/25 07:22:07;;;;;;;1.48;1.38;;;;;;;19.14;53.00;102152.09;5120870;28;20069;-81
2023/09/25 07:24:33;;;;;;;1.67;1.50;;;;;;;18.86;52.77;102099.84;5116437;28;20028;-82
2023/09/25 07:26:58;;;;;;;1.98;1.52;;;;;;;18.78;52.87;102089.78;5108181;28;20036;-82
2023/09/25 07:29:23;;;;;;;1.85;1.40;;;;;;;19.14;52.64;102150.25;5114763;28;20020;-82
2023/09/25 07:31:51;;;;;;;1.95;1.27;;;;;;;18.69;52.88;102078.00;5101713;28;20637;-81
2023/09/25 07:34:16;;;;;;;1.95;1.27;;;;;;;19.15;52.85;102151.94;5111378;28;20039;-81
2023/09/25 07:36:41;;;;;;;1.63;1.30;;;;;;;19.15;52.49;102157.34;5114398;28;20089;-81
2023/09/25 07:39:13;;;;;;;1.90;1.52;;;;;;;18.90;52.81;102110.22;5118065;28;20016;-81
2023/09/25 07:41:38;;;;;;;1.90;1.30;;;;;;;19.15;52.52;102151.94;5114375;28;20496;-81
2023/09/25 07:44:07;;;;;;;2.13;1.20;;;;;;;19.00;52.51;102129.09;5116466;28;20027;-82
2023/09/25 07:46:33;;;;;;;1.60;1.25;;;;;;;18.94;52.66;102119.72;5104843;28;20024;-81
2023/09/25 07:48:59;;;;;;;2.03;1.40;;;;;;;18.96;52.65;102119.59;5105347;28;20028;-81
2023/09/25 07:51:29;;;;;;;1.55;1.20;;;;;;;18.75;52.63;102090.06;5104742;28;20040;-82
2023/09/25 07:53:58;;;;;;;1.40;1.30;;;;;;;18.79;52.50;102096.88;5114227;28;20020;-81
2023/09/25 07:56:23;;;;;;;;;;;;;;;19.17;52.82;102158.06;5113949;28;20087;-82
2023/09/25 07:58:48;;;;;;;2.15;1.38;;;;;;;18.84;52.74;102116.16;5105432;28;19930;-81
2023/09/25 08:01:14;;;;;;;1.30;1.20;;;;;;;18.70;52.70;102085.09;5112826;28;20031;-81
2023/09/25 08:03:39;;;;;;;1.80;1.40;;;;;;;19.15;52.60;102169.97;5113276;28;20032;-81
2023/09/25 08:06:05;;;;;;;1.50;1.25;;;;;;;18.95;52.76;102132.22;5118925;28;20016;-80
2023/09/25 08:08:32;;;;;;;2.00;1.30;;;;;;;19.16;53.01;102167.16;5114891;28;20044;-81
2023/09/25 08:11:00;;;;;;;1.70;1.60;;;;;;;18.99;53.03;102143.56;5115441;28;20030;-82
2023/09/25 08:13:26;;;;;;;1.38;1.15;;;;;;;18.77;52.50;102096.13;5111588;28;20024;-82
2023/09/25 08:15:51;;;;;;;1.55;1.30;;;;;;;19.11;52.82;102169.38;5123327;27;20110;-82
2023/09/25 08:18:16;;;;;;;2.20;1.35;;;;;;;19.00;52.84;102139.03;5115867;28;20020;-81
2023/09/25 08:20:42;;;;;;;1.60;1.20;;;;;;;19.18;52.81;102169.69;5109996;28;20553;-81
2023/09/25 08:23:09;;;;;;;2.53;1.20;;;;;;;18.96;52.56;102128.53;5112753;28;20480;-81
2023/09/25 08:25:34;;;;;;;1.33;1.23;;;;;;;19.06;52.68;102152.78;5104482;28;20477;-81
2023/09/25 08:28:00;;;;;;;1.98;1.27;;;;;;;18.99;52.77;102130.09;5104185;28;20024;-82
2023/09/25 08:30:25;;;;;;;1.23;1.10;;;;;;;19.19;52.82;102177.63;5113093;28;20043;-82
2023/09/25 08:32:51;;;;;;;1.45;1.02;;;;;;;18.83;52.95;102113.63;5104446;28;20020;-82
2023/09/25 08:35:16;;;;;;;2.53;1.33;;;;;;;19.21;52.72;102172.13;5110164;28;20024;-82
2023/09/25 08:37:42;;;;;;;1.42;0.98;;;;;;;18.85;52.76;102107.06;5098683;28;20095;-82
2023/09/25 08:40:09;;;;;;;1.65;1.50;;;;;;;19.22;52.77;102161.19;5115318;28;20055;-82
2023/09/25 08:42:34;;;;;;;1.25;1.10;;;;;;;18.87;52.96;102107.81;5106244;28;20067;-81
2023/09/25 08:45:02;;;;;;;1.30;1.10;;;;;;;18.52;52.67;102042.75;5102237;28;20055;-82
2023/09/25 08:47:30;;;;;;;1.40;1.10;;;;;;;19.21;52.67;102156.78;5114393;28;20030;-82
2023/09/25 08:49:56;;;;;;;2.05;1.35;;;;;;;19.18;52.69;102148.13;5092387;28;20028;-81
2023/09/25 08:52:22;;;;;;;1.67;1.38;;;;;;;19.23;52.83;102144.00;5117397;28;20039;-82
2023/09/25 08:54:48;;;;;;;3.63;1.42;;;;;;;18.96;53.00;102108.81;5122405;28;20523;-81
2023/09/25 08:57:15;;;;;;;2.95;1.90;;;;;;;19.14;52.86;102135.91;5091617;28;20024;-81
2023/09/25 08:59:40;;;;;;;3.05;1.63;;;;;;;19.00;53.00;102107.53;5104887;28;20023;-81
2023/09/25 09:02:12;;;;;;;1.65;1.30;;;;;;;18.84;52.93;102078.44;5103318;28;20449;-81
2023/09/25 09:04:37;;;;;;;2.40;1.50;;;;;;;19.16;52.85;102132.09;5110121;28;20024;-80
2023/09/25 09:07:08;;;;;;;1.50;1.23;;;;;;;19.32;52.89;102154.94;5104126;28;20020;-81
2023/09/25 09:09:34;;;;;;;2.50;1.10;;;;;;;19.33;53.06;102151.28;5114823;28;20352;-81
2023/09/25 09:12:00;;;;;;;1.42;1.15;;;;;;;19.33;52.81;102141.34;5107111;28;20115;-81
2023/09/25 09:14:42;;;;;;;1.45;1.23;;;;;;;19.16;52.71;102102.44;5107350;28;20027;-81
2023/09/25 09:17:09;;;;;;;1.08;1.00;;;;;;;18.82;53.11;102055.31;5104457;28;20028;-81
2023/09/25 09:19:54;;;;;;;1.33;1.10;;;;;;;19.07;52.76;102084.41;5122834;28;20042;-81
2023/09/25 09:22:21;;;;;;;1.23;1.00;;;;;;;19.37;52.68;102139.19;5112042;28;20094;-82
2023/09/25 09:24:51;;;;;;;1.30;1.20;;;;;;;19.35;53.00;102144.72;5104358;28;20039;-81
2023/09/25 09:27:20;;;;;;;1.38;1.10;;;;;;;19.37;52.55;102140.06;5116091;28;20031;-82
2023/09/25 09:29:46;;;;;;;1.73;1.48;;;;;;;19.38;52.81;102135.53;5110320;28;20020;-82
2023/09/25 09:32:14;;;;;;;1.80;1.10;;;;;;;19.38;52.76;102138.22;5097234;28;20020;-81
2023/09/25 09:34:39;;;;;;;2.25;1.20;;;;;;;18.82;52.65;102050.78;5102897;28;20047;-82
2023/09/25 09:37:08;;;;;;;1.80;1.50;;;;;;;18.91;53.00;102074.19;5109765;28;20699;-81
2023/09/25 09:39:36;;;;;;;1.90;1.00;;;;;;;19.31;52.85;102123.59;5107011;28;20035;-80
2023/09/25 09:42:08;;;;;;;1.85;1.33;;;;;;;18.77;52.65;102030.63;5124451;28;20031;-81
2023/09/25 09:44:33;;;;;;;1.48;0.98;;;;;;;19.32;52.78;102128.81;5100262;28;20096;-81
2023/09/25 09:47:04;;;;;;;2.10;1.15;;;;;;;19.09;52.97;102082.44;5104498;28;20020;-81
2023/09/25 09:49:31;;;;;;;1.70;1.27;;;;;;;18.97;52.88;102062.84;5123024;28;20081;-81
2023/09/25 09:51:57;;;;;;;1.65;1.15;;;;;;;19.22;52.85;102095.63;5103601;28;20049;-81
2023/09/25 09:54:23;;;;;;;1.42;1.10;;;;;;;18.98;52.78;102059.16;5113952;28;20127;-82
2023/09/25 09:56:48;;;;;;;1.10;1.00;;;;;;;19.28;53.11;102111.22;5102777;28;20024;-81
2023/09/25 09:59:15;;;;;;;1.60;1.15;;;;;;;19.42;53.16;102129.69;5099488;28;20412;-82
2023/09/25 10:01:43;;;;;;;1.42;1.20;;;;;;;19.31;53.13;102112.78;5120513;28;20085;-81
2023/09/25 10:04:08;;;;;;;1.30;1.20;;;;;;;19.22;53.28;102104.56;5111353;28;20028;-80
2023/09/25 10:07:05;;;;;;;1.83;1.30;;;;;;;19.15;53.19;102091.78;5113853;28;20020;-81
2023/09/25 10:09:31;;;;;;;1.35;1.20;;;;;;;19.27;53.01;102112.22;5099423;28;20119;-81
2023/09/25 10:11:58;;;;;;;1.25;1.10;;;;;;;18.92;53.24;102058.88;5108686;28;20035;-82
2023/09/25 10:14:25;;;;;;;1.40;1.20;;;;;;;19.45;52.99;102150.13;5116405;27;20023;-82
2023/09/25 10:17:06;;;;;;;1.52;1.27;;;;;;;19.30;52.77;102121.88;5114155;28;20028;-82
2023/09/25 10:19:40;;;;;;;1.10;1.00;;;;;;;19.47;53.20;102145.44;5124437;28;20430;-81
2023/09/25 10:22:26;;;;;;;1.20;1.00;;;;;;;19.47;52.98;102149.00;5118423;28;20016;-81
2023/09/25 10:25:12;;;;;;;1.52;1.25;;;;;;;19.47;53.27;102140.91;5110860;28;20072;-81
2023/09/25 10:27:38;;;;;;;1.90;1.25;;;;;;;19.48;52.84;102139.91;5097703;28;20023;-82
2023/09/25 10:30:06;;;;;;;1.60;1.20;;;;;;;19.18;52.98;102088.81;5102237;28;20031;-83
2023/09/25 10:32:37;;;;;;;1.25;1.10;;;;;;;19.12;53.12;102087.53;5108734;28;20032;-82
2023/09/25 10:35:35;;;;;;;1.33;1.00;;;;;;;19.49;53.28;102147.00;5102378;28;20411;-82
2023/09/25 10:38:13;;;;;;;1.42;1.20;;;;;;;19.13;53.40;102077.59;5124526;28;20392;-82
2023/09/25 10:40:42;;;;;;;1.67;1.40;;;;;;;19.33;52.99;102117.06;5112788;28;20125;-81
2023/09/25 10:43:07;;;;;;;;;;;;;;;19.52;53.30;102140.47;5119313;28;20028;-82
2023/09/25 10:45:34;;;;;;;1.17;1.00;;;;;;;19.13;53.34;102077.59;5106426;28;19907;-81
2023/09/25 10:47:59;;;;;;;1.63;1.38;;;;;;;19.52;53.17;102142.31;5096895;28;20114;-82
2023/09/25 10:50:25;;;;;;;1.27;1.05;;;;;;;19.07;53.25;102070.06;5117425;28;20077;-81
2023/09/25 10:52:50;;;;;;;1.35;1.10;;;;;;;19.53;53.45;102160.19;5108537;28;20053;-81
2023/09/25 10:55:15;;;;;;;1.27;1.10;;;;;;;19.53;53.49;102150.25;5117244;28;20027;-81
2023/09/25 10:57:41;;;;;;;1.70;1.17;;;;;;;19.28;53.25;102107.69;5117521;28;20031;-81
2023/09/25 11:00:15;;;;;;;1.63;1.17;;;;;;;18.98;53.49;102056.44;5092876;28;20036;-81
2023/09/25 11:02:41;;;;;;;1.35;1.00;;;;;;;19.30;53.25;102100.31;5118538;28;20083;-82
2023/09/25 11:05:07;;;;;;;1.85;1.10;;;;;;;19.30;53.44;102093.06;5114844;28;20050;-82
2023/09/25 11:07:35;;;;;;;1.52;1.05;;;;;;;19.12;53.66;102059.75;5123406;28;20023;-82
2023/09/25 11:10:02;;;;;;;2.28;1.38;;;;;;;19.47;53.44;102110.38;5117911;28;20040;-82
2023/09/25 11:12:27;;;;;;;1.48;1.10;;;;;;;19.29;53.79;102086.00;5111120;28;20024;-82
2023/09/25 11:14:53;;;;;;;1.30;1.20;;;;;;;19.38;53.42;102103.16;5120055;27;20099;-82
2023/09/25 11:17:18;;;;;;;1.33;1.00;;;;;;;19.49;53.46;102128.09;5115492;28;20535;-82
2023/09/25 11:19:45;;;;;;;1.30;1.20;;;;;;;19.23;53.57;102092.78;5106492;28;20082;-81
2023/09/25 11:22:11;;;;;;;1.10;1.00;;;;;;;19.25;53.82;102100.75;5108611;28;20031;-82
2023/09/25 11:24:39;;;;;;;1.92;1.10;;;;;;;19.65;53.64;102161.78;5106576;28;20028;-82